Sand Key, FL current weather conditions

sailwx.info

Wind from 250 at 6 knots gusting 7

Air temperature 29.1° C

Last reported at 2014-Jul-29 09:50 UTC.
Time now 2014-Jul-29 10:53 UTC

Location: N 24°28' W 081°53'.
View on Google Maps.

See reports from other nearby stations

  
Tides and Currents Weather Stations Pressure Air Temp Water Temp Dewpoint Dewpoint Depression Visibility Wind Speed Wind Dir Waves Ship Positions
date/time (UTC)wind fromknots sea level pressurealtimeterstation pressurevisibilityair tempwater tempwave heightnotes
2014-Jul-29 09:50 250 6 gusting 7 29.1
2014-Jul-29 08:50 220 5 gusting 6 29.2
2014-Jul-29 07:50 190 5 gusting 6 29.4
2014-Jul-29 06:50 230 3 gusting 4 29.5
2014-Jul-29 05:50 330 2 gusting 4 29.6
2014-Jul-29 04:50 340 4 gusting 6 29.7
2014-Jul-29 03:50 360 2 gusting 3 29.8
2014-Jul-29 02:50 350 4 gusting 5 29.9
2014-Jul-29 01:50 020 3 gusting 5 29.9
2014-Jul-29 00:50 340 3 gusting 4 29.9
2014-Jul-28 22:50 360 5 gusting 7 30.1
2014-Jul-28 21:50 020 3 gusting 5 30.2
2014-Jul-28 20:50 010 4 gusting 6 30.1
2014-Jul-28 19:50 070 3 gusting 5 29.8
2014-Jul-28 18:50 360 5 gusting 6 29.8
2014-Jul-28 17:50 290 2 gusting 3 30.4
2014-Jul-28 16:50 30.7
2014-Jul-28 15:50 190 1 gusting 2 30.2
2014-Jul-28 14:50 100 2 gusting 2 29.8
2014-Jul-28 13:50 130 3 gusting 4 29.5
2014-Jul-28 12:50 120 3 gusting 5 29.4
2014-Jul-28 11:50 130 6 gusting 7 29.0
2014-Jul-28 10:50 110 4 gusting 5 28.7
2014-Jul-28 09:50 100 4 gusting 5 28.7
2014-Jul-28 08:50 120 3 gusting 5 28.7
2014-Jul-28 07:50 120 5 gusting 7 28.8
2014-Jul-28 06:50 130 8 gusting 10 28.9
2014-Jul-28 05:50 120 8 gusting 10 29.1
2014-Jul-28 04:50 120 8 gusting 11 29.2
2014-Jul-28 03:50 100 6 gusting 9 29.3
2014-Jul-28 02:50 080 5 gusting 7 29.4
2014-Jul-28 01:50 080 4 gusting 6 29.3
2014-Jul-28 00:50 090 4 gusting 5 29.4
2014-Jul-27 22:50 120 4 gusting 7 29.6
2014-Jul-27 21:50 120 5 gusting 6 29.5
2014-Jul-27 20:50 120 5 gusting 6 29.4
2014-Jul-27 19:50 110 4 gusting 6 29.4
2014-Jul-27 18:50 140 3 gusting 5 29.3
2014-Jul-27 17:50 140 4 gusting 7 29.2
2014-Jul-27 16:50 130 5 gusting 7 29.3
2014-Jul-27 15:50 140 9 gusting 10 29.4
2014-Jul-27 14:50 130 8 gusting 10 29.1
2014-Jul-27 13:50 130 7 gusting 9 29.2
2014-Jul-27 12:50 130 5 gusting 6 29.3
2014-Jul-27 11:50 150 3 gusting 5 29.0
2014-Jul-27 10:50 100 5 gusting 7 28.8